Canning, South Dakota
Current Conditions -  °F | °C
As of 1:53 PM on Friday 31 Oct 2014 (Local Time) from KPIR Reporting Station
Clear Clear  
Wind Chill: 27°   Ceiling: Unl
Heat Index: 37°   Visibility: 10mi
Dew Point: 14°   Wind: 17mph
Humidity: 39%   Direction: 140°SE
Pressure: 30.41"   Gusts: NA
Location:  44.3693°N, 100.04°W
Report Text: KPIR 311853Z AUTO 14015KT 10SM CLR 03/M10 A3041 RMK AO2 SLP318 T00281100
Loading
Personal Weather Stations






























Interactive Weather Map
Tropical Storm Tracking
New forecast layout! Learn more

10-Day Weather Forecast

Advertisements
Track Severe Weather on mobile